Time;durP1;ratioP1;P1;durP2;ratioP2;P2;SDS_P1;SDS_P2;PMS_P1;PMS_P2;Temp;Humidity;BMP_temperature;BMP_pressure;BME280_temperature;BME280_humidity;BME280_pressure;Samples;Min_cycle;Max_cycle;Signal;HPM_P1;HPM_P2
2022/03/08 00:01:12;;;;;;;10.98;9.80;;;1.00;99.90;;;;;;4939941;28;89561;-30
2022/03/08 00:03:38;;;;;;;14.50;11.02;;;1.10;99.90;;;;;;4942899;28;88172;-33
2022/03/08 00:06:04;;;;;;;12.60;10.20;;;1.10;99.90;;;;;;4943328;28;87693;-31
2022/03/08 00:08:29;;;;;;;12.60;11.02;;;1.00;99.90;;;;;;4977558;22;90134;-32
2022/03/08 00:10:55;;;;;;;18.45;12.23;;;0.90;99.90;;;;;;4943994;28;89678;-30
2022/03/08 00:13:21;;;;;;;12.35;11.02;;;0.80;99.90;;;;;;4943618;28;87908;-30
2022/03/08 00:15:47;;;;;;;15.63;10.35;;;0.90;99.90;;;;;;4944285;28;88569;-31
2022/03/08 00:18:12;;;;;;;12.70;11.05;;;0.90;99.90;;;;;;4943132;28;90310;-30
2022/03/08 00:20:38;;;;;;;12.10;9.95;;;0.90;99.90;;;;;;4943433;28;90023;-31
2022/03/08 00:23:04;;;;;;;14.43;9.85;;;1.00;99.90;;;;;;4943793;28;89097;-34
2022/03/08 00:25:30;;;;;;;11.68;10.52;;;1.10;99.90;;;;;;4944456;28;88408;-32
2022/03/08 00:27:56;;;;;;;14.52;10.18;;;1.10;99.90;;;;;;4943738;28;90378;-30
2022/03/08 00:30:24;;;;;;;14.27;11.55;;;1.10;99.90;;;;;;4942965;28;90165;-29
2022/03/08 00:32:51;;;;;;;14.57;11.32;;;1.10;99.90;;;;;;4941402;28;88178;-32
2022/03/08 00:35:18;;;;;;;12.93;10.88;;;1.10;99.90;;;;;;4943164;28;88626;-32
2022/03/08 00:37:47;;;;;;;12.32;11.10;;;1.00;99.90;;;;;;4943577;28;90328;-31
2022/03/08 00:40:14;;;;;;;15.52;12.02;;;1.00;99.90;;;;;;4944116;28;89612;-29
2022/03/08 00:42:40;;;;;;;13.45;10.43;;;0.90;99.90;;;;;;4942390;28;89693;-31
2022/03/08 00:45:08;;;;;;;14.07;11.57;;;0.90;99.90;;;;;;4943479;28;87634;-34
2022/03/08 00:47:41;;;;;;;13.52;10.30;;;1.00;99.90;;;;;;4942576;28;90028;-30
2022/03/08 00:50:18;;;;;;;14.52;10.75;;;0.90;99.90;;;;;;4943180;28;89555;-35
2022/03/08 00:52:44;;;;;;;15.70;11.57;;;0.80;99.90;;;;;;4943343;28;87602;-31
2022/03/08 00:55:10;;;;;;;12.90;9.90;;;0.70;99.90;;;;;;4941064;28;87724;-32
2022/03/08 00:57:37;;;;;;;15.77;11.85;;;0.60;99.90;;;;;;4942912;28;90216;-30
2022/03/08 01:00:09;;;;;;;14.30;10.43;;;0.50;99.90;;;;;;4942987;28;89553;-32
2022/03/08 01:02:34;;;;;;;13.60;10.95;;;0.50;99.90;;;;;;4942676;28;87559;-33
2022/03/08 01:05:00;;;;;;;13.63;9.82;;;0.50;99.90;;;;;;4942602;28;89175;-32
2022/03/08 01:07:25;;;;;;;14.23;11.07;;;0.40;99.90;;;;;;4943456;28;90474;-35
2022/03/08 01:09:51;;;;;;;13.90;11.00;;;0.40;99.90;;;;;;4942896;28;89872;-30
2022/03/08 01:12:17;;;;;;;16.13;10.82;;;0.30;99.90;;;;;;4941909;28;89418;-30
2022/03/08 01:14:42;;;;;;;13.18;11.10;;;0.30;99.90;;;;;;4942514;28;87714;-32
2022/03/08 01:17:08;;;;;;;11.68;10.25;;;0.20;99.90;;;;;;4942277;28;90186;-31
2022/03/08 01:19:34;;;;;;;18.00;12.23;;;0.20;99.90;;;;;;4941833;28;89848;-31
2022/03/08 01:21:59;;;;;;;14.23;11.70;;;0.20;99.90;;;;;;4942498;28;90220;-33
2022/03/08 01:24:25;;;;;;;18.75;11.82;;;0.10;99.90;;;;;;4942133;28;88007;-32
2022/03/08 01:26:51;;;;;;;16.38;11.00;;;0.00;99.90;;;;;;4942393;28;90357;-32
2022/03/08 01:29:16;;;;;;;15.02;10.63;;;0.00;99.90;;;;;;4942068;28;90098;-30
2022/03/08 01:31:42;;;;;;;14.10;11.68;;;0.00;99.90;;;;;;4942941;28;89914;-33
2022/03/08 01:34:08;;;;;;;12.48;11.27;;;-0.10;99.90;;;;;;4942512;28;88071;-34
2022/03/08 01:36:33;;;;;;;13.60;11.70;;;-0.10;99.90;;;;;;4941727;28;90347;-31
2022/03/08 01:38:59;;;;;;;17.02;12.25;;;0.00;99.90;;;;;;4942079;28;89902;-30
2022/03/08 01:41:24;;;;;;;16.10;11.35;;;-0.10;99.90;;;;;;4942062;28;89151;-31
2022/03/08 01:43:50;;;;;;;17.23;12.10;;;-0.10;99.90;;;;;;4942229;28;87590;-33
2022/03/08 01:46:16;;;;;;;18.13;13.05;;;0.00;99.90;;;;;;4942035;28;90372;-35
2022/03/08 01:48:42;;;;;;;15.23;11.65;;;0.00;99.90;;;;;;4941680;28;88710;-30
2022/03/08 01:51:08;;;;;;;18.08;12.55;;;0.10;99.90;;;;;;4942072;28;89989;-30
2022/03/08 01:53:37;;;;;;;15.63;13.00;;;0.10;99.90;;;;;;4941189;28;88374;-30
2022/03/08 01:56:03;;;;;;;13.25;11.55;;;0.10;99.90;;;;;;4941932;28;90185;-33
2022/03/08 01:58:29;;;;;;;17.60;11.95;;;0.00;99.90;;;;;;4940909;28;89548;-33
2022/03/08 02:00:55;;;;;;;11.27;10.18;;;-0.10;99.90;;;;;;4941684;28;89035;-30
2022/03/08 02:03:20;;;;;;;17.40;13.15;;;-0.10;99.90;;;;;;4941809;28;88284;-31
2022/03/08 02:05:46;;;;;;;16.48;12.05;;;-0.20;99.90;;;;;;4941191;28;90653;-31
2022/03/08 02:08:13;;;;;;;15.32;10.35;;;-0.20;99.90;;;;;;4941598;28;89479;-33
2022/03/08 02:10:38;;;;;;;16.55;12.43;;;-0.20;99.90;;;;;;4942087;28;88869;-34
2022/03/08 02:13:04;;;;;;;16.38;12.10;;;-0.30;99.90;;;;;;4941563;28;88290;-34
2022/03/08 02:15:30;;;;;;;17.80;12.93;;;-0.30;99.90;;;;;;4941268;28;90199;-32
2022/03/08 02:17:58;;;;;;;18.25;12.18;;;-0.40;99.90;;;;;;4941973;28;88867;-30
2022/03/08 02:20:24;;;;;;;14.40;12.63;;;-0.40;99.90;;;;;;4941399;28;88319;-31
2022/03/08 02:22:49;;;;;;;18.20;13.77;;;-0.40;99.90;;;;;;4940275;28;90400;-34
2022/03/08 02:25:16;;;;;;;21.80;13.02;;;-0.50;99.90;;;;;;4941804;28;89605;-36
2022/03/08 02:27:44;;;;;;;17.85;12.73;;;-0.50;99.90;;;;;;4939839;28;90207;-31
2022/03/08 02:30:12;;;;;;;19.02;13.02;;;-0.50;99.90;;;;;;4941577;28;89163;-32
2022/03/08 02:32:38;;;;;;;22.48;14.25;;;-0.50;99.90;;;;;;4941905;28;88863;-32
2022/03/08 02:35:05;;;;;;;15.68;14.00;;;-0.50;99.90;;;;;;4940945;28;90311;-31
2022/03/08 02:37:47;;;;;;;15.60;13.33;;;-0.40;99.90;;;;;;4940274;28;89445;-31
2022/03/08 02:40:15;;;;;;;20.90;14.63;;;-0.30;99.90;;;;;;4941277;28;89777;-31
2022/03/08 02:42:41;;;;;;;17.80;13.05;;;-0.30;99.90;;;;;;4940948;28;87672;-33
2022/03/08 02:45:08;;;;;;;17.90;14.00;;;-0.20;99.90;;;;;;4941257;28;90322;-30
2022/03/08 02:47:34;;;;;;;19.23;13.35;;;-0.20;99.90;;;;;;4941147;28;89542;-32
2022/03/08 02:50:00;;;;;;;21.58;14.73;;;-0.20;99.90;;;;;;4938991;28;88308;-30
2022/03/08 02:52:25;;;;;;;17.40;13.50;;;-0.20;99.90;;;;;;4941237;28;88669;-33
2022/03/08 02:54:51;;;;;;;18.30;14.23;;;-0.10;99.90;;;;;;4940509;28;90384;-34
2022/03/08 02:57:17;;;;;;;19.90;13.13;;;-0.10;99.90;;;;;;4940277;28;90161;-33
2022/03/08 02:59:42;;;;;;;17.85;13.68;;;-0.10;99.90;;;;;;4941606;28;88839;-30
2022/03/08 03:02:08;;;;;;;17.17;14.50;;;0.00;99.90;;;;;;4941161;28;87997;-31
2022/03/08 03:04:34;;;;;;;16.67;13.60;;;0.00;99.90;;;;;;4940710;28;89181;-34
2022/03/08 03:06:59;;;;;;;23.83;14.48;;;-0.10;99.90;;;;;;4940528;28;89758;-34
2022/03/08 03:09:25;;;;;;;20.15;14.23;;;-0.10;99.90;;;;;;4925988;28;90937;-32
2022/03/08 03:11:51;;;;;;;15.00;13.13;;;-0.20;99.90;;;;;;4921284;28;87894;-31
2022/03/08 03:14:16;;;;;;;15.43;12.95;;;-0.30;99.90;;;;;;4920790;28;89928;-31
2022/03/08 03:16:42;;;;;;;21.70;13.80;;;-0.40;99.90;;;;;;4921630;28;89892;-32
2022/03/08 03:19:07;;;;;;;17.10;14.63;;;-0.40;99.90;;;;;;4921040;28;88038;-32
2022/03/08 03:21:33;;;;;;;23.38;14.27;;;-0.50;99.90;;;;;;4921256;28;89979;-34
2022/03/08 03:23:59;;;;;;;18.55;13.52;;;-0.60;99.90;;;;;;4920743;28;90192;-31
2022/03/08 03:26:24;;;;;;;19.73;14.57;;;-0.60;99.90;;;;;;4921522;28;89572;-30
2022/03/08 03:28:50;;;;;;;17.88;13.82;;;-0.70;99.90;;;;;;4921571;28;88373;-31
2022/03/08 03:31:16;;;;;;;17.30;13.75;;;-0.70;99.90;;;;;;4920610;28;89449;-34
2022/03/08 03:33:42;;;;;;;17.73;14.57;;;-0.80;99.90;;;;;;4921051;28;90541;-32
2022/03/08 03:36:07;;;;;;;17.83;14.15;;;-0.80;99.90;;;;;;4921133;28;88438;-30
2022/03/08 03:38:33;;;;;;;20.98;15.80;;;-0.80;99.90;;;;;;4920942;28;89314;-34
2022/03/08 03:40:59;;;;;;;18.35;16.52;;;-0.80;99.90;;;;;;4921118;28;88596;-34
2022/03/08 03:43:24;;;;;;;19.83;15.13;;;-0.90;99.90;;;;;;4920545;28;90589;-33
2022/03/08 03:45:50;;;;;;;18.38;14.77;;;-0.90;99.90;;;;;;4920978;28;90046;-31
2022/03/08 03:48:15;;;;;;;19.05;14.93;;;-0.90;99.90;;;;;;4920096;28;88811;-36
2022/03/08 03:50:41;;;;;;;17.40;14.18;;;-0.90;99.90;;;;;;4921288;28;89183;-31
2022/03/08 03:53:07;;;;;;;18.45;16.52;;;-0.90;99.90;;;;;;4920261;28;89979;-32
2022/03/08 03:55:33;;;;;;;16.58;14.18;;;-0.90;99.90;;;;;;4921125;28;90304;-32
2022/03/08 03:57:59;;;;;;;20.60;15.00;;;-0.90;99.90;;;;;;4920766;28;88086;-30
2022/03/08 04:00:25;;;;;;;20.00;15.65;;;-1.00;99.90;;;;;;4920435;28;88935;-31
2022/03/08 04:02:50;;;;;;;20.23;14.80;;;-1.00;99.90;;;;;;4920913;28;90276;-31
2022/03/08 04:05:16;;;;;;;16.90;14.95;;;-1.00;99.90;;;;;;4920388;28;88426;-32
2022/03/08 04:07:42;;;;;;;19.98;15.88;;;-1.00;99.90;;;;;;4920880;28;90021;-33
2022/03/08 04:10:09;;;;;;;16.48;14.23;;;-1.00;99.90;;;;;;4940073;28;88223;-31
2022/03/08 04:12:35;;;;;;;19.60;14.88;;;-1.10;99.90;;;;;;4939412;28;90336;-31
2022/03/08 04:15:01;;;;;;;26.05;16.27;;;-1.10;99.90;;;;;;4940057;28;89741;-31
2022/03/08 04:17:27;;;;;;;18.83;16.23;;;-1.10;99.90;;;;;;4939832;28;88913;-30
2022/03/08 04:19:52;;;;;;;16.20;14.32;;;-1.20;99.90;;;;;;4939790;28;88965;-33
2022/03/08 04:22:18;;;;;;;19.02;15.65;;;-1.20;99.90;;;;;;4939343;28;89782;-31
2022/03/08 04:24:43;;;;;;;18.50;14.73;;;-1.20;99.90;;;;;;4938162;28;90116;-31
2022/03/08 04:27:09;;;;;;;17.52;14.60;;;-1.30;99.90;;;;;;4940608;28;89680;-30
2022/03/08 04:29:35;;;;;;;20.95;15.73;;;-1.30;99.90;;;;;;4939319;28;87968;-30
2022/03/08 04:32:00;;;;;;;26.55;16.90;;;-1.30;99.90;;;;;;4939769;28;89270;-32
2022/03/08 04:34:26;;;;;;;22.80;17.33;;;-1.30;99.90;;;;;;4939576;28;89776;-31
2022/03/08 04:36:52;;;;;;;24.95;15.65;;;-1.30;99.90;;;;;;4939647;28;87938;-31
2022/03/08 04:39:17;;;;;;;19.02;15.88;;;-1.30;99.90;;;;;;4939265;28;88802;-30
2022/03/08 04:41:43;;;;;;;23.38;16.08;;;-1.30;99.90;;;;;;4939150;28;90566;-34
2022/03/08 04:44:08;;;;;;;26.73;17.30;;;-1.30;99.90;;;;;;4939614;28;90112;-29
2022/03/08 04:46:34;;;;;;;18.70;15.40;;;-1.30;99.90;;;;;;4939062;28;89287;-30
2022/03/08 04:49:00;;;;;;;20.55;16.08;;;-1.30;99.90;;;;;;4940105;28;88157;-32
2022/03/08 04:51:25;;;;;;;24.00;16.67;;;-1.20;99.90;;;;;;4941917;28;90523;-33
2022/03/08 04:53:51;;;;;;;24.10;17.30;;;-1.20;99.90;;;;;;4943234;28;89673;-32
2022/03/08 04:56:18;;;;;;;20.45;16.05;;;-1.20;99.90;;;;;;4942557;28;89528;-30
2022/03/08 04:58:45;;;;;;;23.77;16.88;;;-1.20;99.90;;;;;;4942193;28;88190;-32
2022/03/08 05:01:10;;;;;;;20.58;16.33;;;-1.20;99.90;;;;;;4942166;28;90127;-33
2022/03/08 05:03:36;;;;;;;21.85;17.10;;;-1.30;99.90;;;;;;4942112;28;91490;-31
2022/03/08 05:06:04;;;;;;;22.73;17.35;;;-1.30;99.90;;;;;;4942218;28;89721;-33
2022/03/08 05:08:30;;;;;;;23.17;18.05;;;-1.30;99.90;;;;;;4941899;28;88969;-32
2022/03/08 05:10:55;;;;;;;23.48;16.27;;;-1.30;99.90;;;;;;4942725;28;89245;-30
2022/03/08 05:13:22;;;;;;;21.70;16.85;;;-1.20;99.90;;;;;;4941410;28;89715;-33
2022/03/08 05:15:48;;;;;;;22.13;16.77;;;-1.20;99.90;;;;;;4941276;28;87613;-30
2022/03/08 05:18:15;;;;;;;23.08;17.50;;;-1.30;99.90;;;;;;4942327;28;89077;-31
2022/03/08 05:20:41;;;;;;;23.70;19.30;;;-1.30;99.90;;;;;;4941891;28;91116;-31
2022/03/08 05:23:07;;;;;;;23.67;16.83;;;-1.20;99.90;;;;;;4942653;28;90341;-31
2022/03/08 05:25:32;;;;;;;25.10;18.42;;;-1.30;99.90;;;;;;4941687;28;88757;-31
2022/03/08 05:27:58;;;;;;;25.45;17.98;;;-1.30;99.90;;;;;;4942324;28;89324;-31
2022/03/08 05:30:24;;;;;;;23.30;19.15;;;-1.20;99.90;;;;;;4942013;28;90257;-30
2022/03/08 05:32:49;;;;;;;27.48;19.95;;;-1.20;99.90;;;;;;4942366;28;89617;-34
2022/03/08 05:35:15;;;;;;;22.77;18.33;;;-1.20;99.90;;;;;;4942648;28;88441;-32
2022/03/08 05:37:40;;;;;;;22.15;18.65;;;-1.10;99.90;;;;;;4941573;28;89324;-31
2022/03/08 05:40:07;;;;;;;28.42;17.80;;;-1.20;99.90;;;;;;4942528;28;90096;-32
2022/03/08 05:42:33;;;;;;;25.45;17.92;;;-1.20;99.90;;;;;;4941473;28;89695;-31
2022/03/08 05:44:59;;;;;;;26.10;19.20;;;-1.20;99.90;;;;;;4942477;28;90341;-35
2022/03/08 05:47:24;;;;;;;20.27;16.30;;;-1.20;99.90;;;;;;4942452;28;87878;-31
2022/03/08 05:49:50;;;;;;;31.13;19.05;;;-1.20;99.90;;;;;;4941331;28;90769;-30
2022/03/08 05:52:15;;;;;;;29.48;19.48;;;-1.30;99.90;;;;;;4942395;28;91529;-34
2022/03/08 05:54:41;;;;;;;24.58;19.45;;;-1.30;99.90;;;;;;4941546;28;87912;-34
2022/03/08 05:57:06;;;;;;;28.58;20.98;;;-1.30;99.90;;;;;;4942555;28;90175;-31
2022/03/08 05:59:32;;;;;;;25.60;20.10;;;-1.30;99.90;;;;;;4941437;28;90192;-31
2022/03/08 06:01:57;;;;;;;24.27;18.60;;;-1.30;99.90;;;;;;4941532;28;89733;-32
2022/03/08 06:04:23;;;;;;;24.88;17.98;;;-1.30;99.90;;;;;;4941818;28;88563;-30
2022/03/08 06:06:50;;;;;;;23.65;19.15;;;-1.30;99.90;;;;;;4941449;28;87659;-31
2022/03/08 06:09:16;;;;;;;28.75;21.08;;;-1.30;99.90;;;;;;4941385;28;90218;-36
2022/03/08 06:11:42;;;;;;;28.40;20.85;;;-1.30;99.90;;;;;;4941361;28;89588;-32
2022/03/08 06:14:08;;;;;;;26.80;19.88;;;-1.30;99.90;;;;;;4941323;28;88568;-34
2022/03/08 06:16:33;;;;;;;21.95;19.60;;;-1.30;99.90;;;;;;4941775;28;88379;-33
2022/03/08 06:18:59;;;;;;;25.45;19.38;;;-1.30;99.90;;;;;;4940978;28;90097;-33
2022/03/08 06:21:25;;;;;;;32.38;20.90;;;-1.30;99.90;;;;;;4941291;28;89594;-30
2022/03/08 06:23:50;;;;;;;21.48;19.17;;;-1.30;99.90;;;;;;4941804;28;88075;-31
2022/03/08 06:26:17;;;;;;;27.75;20.60;;;-1.30;99.90;;;;;;4939777;28;90466;-32
2022/03/08 06:28:43;;;;;;;30.92;20.77;;;-1.30;99.90;;;;;;4941533;28;90405;-33
2022/03/08 06:31:08;;;;;;;30.30;20.10;;;-1.30;99.90;;;;;;4941304;28;89599;-33
2022/03/08 06:33:34;;;;;;;26.70;21.55;;;-1.20;99.90;;;;;;4941160;28;89298;-32
2022/03/08 06:35:59;;;;;;;30.98;20.27;;;-1.20;99.90;;;;;;4940980;28;88997;-31
2022/03/08 06:38:25;;;;;;;25.13;18.63;;;-1.10;99.90;;;;;;4940243;28;90785;-33
2022/03/08 06:40:50;;;;;;;26.60;20.20;;;-1.10;99.90;;;;;;4941112;28;89871;-30
2022/03/08 06:43:16;;;;;;;26.65;21.42;;;-1.00;99.90;;;;;;4940590;28;89167;-31
2022/03/08 06:45:42;;;;;;;26.20;19.23;;;-0.90;99.90;;;;;;4941550;28;88836;-30
2022/03/08 06:48:09;;;;;;;28.38;19.73;;;-0.90;99.90;;;;;;4940426;28;90220;-32
2022/03/08 06:50:35;;;;;;;29.67;19.57;;;-0.70;99.90;;;;;;4940291;28;89482;-33
2022/03/08 06:53:01;;;;;;;26.38;20.25;;;-0.60;99.90;;;;;;4940954;28;87655;-31
2022/03/08 06:55:26;;;;;;;26.25;20.30;;;-0.60;99.90;;;;;;4938834;28;89890;-31
2022/03/08 06:57:52;;;;;;;25.27;20.50;;;-0.50;99.90;;;;;;4941368;28;89954;-29
2022/03/08 07:00:18;;;;;;;28.95;21.65;;;-0.50;99.90;;;;;;4939831;28;89645;-33
2022/03/08 07:02:44;;;;;;;32.60;23.88;;;-0.40;99.90;;;;;;4940691;28;88247;-31
2022/03/08 07:05:10;;;;;;;31.30;22.42;;;-0.40;99.90;;;;;;4941066;28;88819;-29
2022/03/08 07:07:35;;;;;;;25.90;20.83;;;-0.30;99.90;;;;;;4940114;28;90639;-32
2022/03/08 07:10:01;;;;;;;29.33;20.15;;;-0.20;99.90;;;;;;4895226;28;90537;-30
2022/03/08 07:12:27;;;;;;;28.08;20.20;;;-0.20;99.90;;;;;;4932592;28;88744;-30
2022/03/08 07:14:53;;;;;;;27.65;20.58;;;-0.10;99.90;;;;;;4921531;28;89956;-33
2022/03/08 07:17:18;;;;;;;30.73;21.08;;;0.00;99.90;;;;;;4920489;28;89991;-32
2022/03/08 07:19:44;;;;;;;27.65;19.15;;;0.00;99.90;;;;;;4920505;28;89285;-33
2022/03/08 07:22:09;;;;;;;31.00;22.17;;;0.10;99.90;;;;;;4921600;28;87576;-29
2022/03/08 07:24:35;;;;;;;26.27;20.23;;;0.30;99.90;;;;;;4919760;28;89311;-28
2022/03/08 07:27:00;;;;;;;30.25;20.17;;;0.40;99.90;;;;;;4919098;28;90473;-29
2022/03/08 07:29:26;;;;;;;28.67;21.52;;;0.70;99.90;;;;;;4918555;28;89764;-31
2022/03/08 07:31:52;;;;;;;33.15;23.02;;;1.00;99.90;;;;;;4920905;28;89229;-35
2022/03/08 07:34:17;;;;;;;27.58;21.48;;;1.30;99.90;;;;;;4920722;28;89762;-31
2022/03/08 07:36:43;;;;;;;26.95;18.50;;;1.60;99.90;;;;;;4918164;28;90219;-35
2022/03/08 07:39:09;;;;;;;24.67;21.70;;;1.80;99.90;;;;;;4918603;28;90206;-29
2022/03/08 07:41:35;;;;;;;26.35;20.30;;;1.90;99.90;;;;;;4926875;28;89007;-30
2022/03/08 07:44:01;;;;;;;26.73;20.60;;;2.00;99.90;;;;;;4938542;28;88535;-31
2022/03/08 07:46:26;;;;;;;30.23;21.55;;;2.00;99.90;;;;;;4937992;28;90639;-31
2022/03/08 07:48:52;;;;;;;32.85;21.77;;;2.10;99.90;;;;;;4937962;28;89686;-35
2022/03/08 07:51:18;;;;;;;25.73;20.30;;;2.10;99.90;;;;;;4938126;28;88679;-33
2022/03/08 07:53:43;;;;;;;26.55;19.55;;;2.10;99.90;;;;;;4938342;28;89068;-31
2022/03/08 07:56:09;;;;;;;24.02;20.80;;;2.20;99.90;;;;;;4938791;28;91535;-31
2022/03/08 07:58:37;;;;;;;24.63;19.63;;;2.30;99.90;;;;;;4937252;28;88628;-32
2022/03/08 08:01:04;;;;;;;24.90;18.50;;;2.50;99.90;;;;;;4938339;28;88211;-31
2022/03/08 08:03:29;;;;;;;24.73;18.75;;;2.70;99.90;;;;;;4938840;28;90113;-31
2022/03/08 08:05:55;;;;;;;22.23;18.42;;;2.80;99.90;;;;;;4938020;28;90136;-30
2022/03/08 08:08:21;;;;;;;28.17;20.40;;;2.80;99.90;;;;;;4937798;28;88861;-29
2022/03/08 08:10:46;;;;;;;32.22;19.27;;;3.00;99.90;;;;;;4938977;28;88381;-31
2022/03/08 08:13:12;;;;;;;22.20;18.67;;;3.20;99.90;;;;;;4938129;28;90179;-31
2022/03/08 08:15:39;;;;;;;27.63;19.17;;;3.40;99.90;;;;;;4937664;28;89162;-32
2022/03/08 08:18:04;;;;;;;25.55;18.65;;;3.60;99.90;;;;;;4938251;28;90080;-30
2022/03/08 08:20:30;;;;;;;23.20;17.38;;;3.80;99.90;;;;;;4937289;28;87625;-30
2022/03/08 08:22:55;;;;;;;21.70;17.95;;;4.00;99.90;;;;;;4937979;28;89367;-32
2022/03/08 08:25:21;;;;;;;22.98;18.02;;;4.20;99.90;;;;;;4938478;28;89452;-31
2022/03/08 08:27:47;;;;;;;23.77;19.80;;;4.30;99.90;;;;;;4941049;28;89540;-31
2022/03/08 08:30:13;;;;;;;20.30;17.33;;;4.40;99.90;;;;;;4940686;28;88736;-32
2022/03/08 08:32:39;;;;;;;21.27;17.33;;;4.60;99.90;;;;;;4940711;28;88187;-34
2022/03/08 08:35:05;;;;;;;23.50;15.77;;;4.70;99.90;;;;;;4940955;28;90502;-31
2022/03/08 08:37:31;;;;;;;20.88;16.27;;;4.90;99.90;;;;;;4940323;28;89937;-33
2022/03/08 08:39:57;;;;;;;24.90;16.48;;;4.90;99.90;;;;;;4941855;28;89706;-34
2022/03/08 08:42:22;;;;;;;22.40;18.83;;;5.10;99.90;;;;;;4940631;28;87995;-33
2022/03/08 08:44:48;;;;;;;20.38;17.02;;;5.20;99.90;;;;;;4939475;28;90200;-33
2022/03/08 08:47:13;;;;;;;21.67;16.45;;;5.40;99.90;;;;;;4940818;28;89343;-35
2022/03/08 08:49:39;;;;;;;23.20;16.48;;;5.60;99.90;;;;;;4940231;28;90041;-34
2022/03/08 08:52:05;;;;;;;22.67;17.80;;;5.70;99.90;;;;;;4941406;28;88380;-33
2022/03/08 08:54:31;;;;;;;17.83;15.52;;;5.90;99.90;;;;;;4938629;28;90501;-33
2022/03/08 08:56:56;;;;;;;17.90;16.10;;;6.00;99.90;;;;;;4940674;28;89294;-31
2022/03/08 08:59:22;;;;;;;24.52;17.33;;;6.10;99.90;;;;;;4940361;28;87724;-32
2022/03/08 09:01:47;;;;;;;22.15;17.60;;;6.20;99.90;;;;;;4941439;28;88202;-31
2022/03/08 09:04:13;;;;;;;20.05;16.65;;;6.30;99.90;;;;;;4941203;28;91923;-30
2022/03/08 09:06:40;;;;;;;21.33;16.98;;;6.40;99.90;;;;;;4940159;28;90576;-31
2022/03/08 09:09:05;;;;;;;24.60;17.25;;;6.60;99.90;;;;;;4940339;28;89164;-34
2022/03/08 09:11:31;;;;;;;19.80;15.93;;;6.60;99.90;;;;;;4940247;28;88193;-34
2022/03/08 09:13:58;;;;;;;19.33;17.35;;;6.70;99.90;;;;;;4940554;28;88949;-31
2022/03/08 09:16:24;;;;;;;19.10;16.23;;;6.90;99.90;;;;;;4940687;28;89750;-32
2022/03/08 09:18:50;;;;;;;19.23;15.27;;;7.10;99.90;;;;;;4939772;28;87639;-34
2022/03/08 09:21:15;;;;;;;19.25;16.05;;;7.30;94.50;;;;;;4940888;28;89112;-35
2022/03/08 09:23:41;;;;;;;20.60;15.20;;;7.40;95.20;;;;;;4939591;28;90213;-30
2022/03/08 09:26:08;;;;;;;19.25;14.85;;;7.50;93.00;;;;;;4940027;28;88273;-33
2022/03/08 09:28:34;;;;;;;21.00;14.73;;;7.60;85.40;;;;;;4940292;28;87876;-31
2022/03/08 09:30:59;;;;;;;16.20;12.38;;;7.60;88.30;;;;;;4940564;28;89151;-31
2022/03/08 09:33:26;;;;;;;17.13;13.40;;;7.70;81.10;;;;;;4940067;28;90324;-36
2022/03/08 09:35:52;;;;;;;14.63;12.05;;;7.80;84.30;;;;;;4940012;28;89793;-29
2022/03/08 09:38:17;;;;;;;14.88;13.38;;;7.90;79.20;;;;;;4940383;28;90077;-33
2022/03/08 09:40:43;;;;;;;15.73;13.45;;;7.90;79.10;;;;;;4940440;28;89564;-31
2022/03/08 09:43:09;;;;;;;20.90;14.05;;;8.00;77.60;;;;;;4939673;28;90323;-35
2022/03/08 09:45:35;;;;;;;16.88;11.20;;;8.00;76.70;;;;;;4939742;28;89612;-32
2022/03/08 09:48:02;;;;;;;16.38;13.95;;;8.00;75.40;;;;;;4939851;28;88588;-29
2022/03/08 09:50:29;;;;;;;18.50;14.68;;;8.10;77.10;;;;;;4939153;28;87659;-32
2022/03/08 09:52:57;;;;;;;25.63;14.07;;;8.20;79.50;;;;;;4940451;28;91094;-30
2022/03/08 09:55:25;;;;;;;15.15;13.65;;;8.40;77.20;;;;;;4940072;28;89318;-31
2022/03/08 09:57:52;;;;;;;16.77;14.80;;;8.50;74.70;;;;;;4940140;28;89676;-31
2022/03/08 10:00:18;;;;;;;13.65;12.23;;;8.60;75.50;;;;;;4939381;28;89773;-30
2022/03/08 10:02:47;;;;;;;14.93;12.52;;;8.70;73.50;;;;;;4939384;28;90549;-34
2022/03/08 10:05:14;;;;;;;16.83;13.75;;;8.70;73.50;;;;;;4939633;28;89504;-32
2022/03/08 10:07:41;;;;;;;18.27;14.00;;;8.80;73.40;;;;;;4939230;28;87878;-34
2022/03/08 10:10:07;;;;;;;17.63;13.80;;;8.90;73.40;;;;;;4940069;28;88247;-32
2022/03/08 10:12:33;;;;;;;17.80;14.05;;;9.00;70.40;;;;;;4939231;28;89797;-34
2022/03/08 10:14:58;;;;;;;17.23;13.45;;;9.10;67.80;;;;;;4939857;28;89451;-33
2022/03/08 10:17:38;;;;;;;16.77;12.38;;;9.10;68.80;;;;;;4939036;28;88437;-30
2022/03/08 10:20:07;;;;;;;14.40;12.48;;;9.00;69.20;;;;;;4939349;28;88028;-35
2022/03/08 10:22:37;;;;;;;14.02;12.30;;;9.10;69.00;;;;;;4938525;28;91887;-31
2022/03/08 10:25:19;;;;;;;14.48;12.05;;;9.20;67.70;;;;;;4939165;28;90274;-31
2022/03/08 10:28:05;;;;;;;18.70;12.43;;;9.20;67.00;;;;;;4940009;28;87478;-31
2022/03/08 10:30:43;;;;;;;12.45;11.07;;;9.30;65.40;;;;;;4939047;28;90047;-32
2022/03/08 10:33:09;;;;;;;17.03;13.23;;;9.30;66.50;;;;;;4939106;28;90684;-31
2022/03/08 10:35:39;;;;;;;11.73;10.57;;;9.40;64.40;;;;;;4938813;28;89469;-34
2022/03/08 10:38:08;;;;;;;11.30;9.35;;;9.40;65.10;;;;;;4939787;28;88688;-31
2022/03/08 10:40:35;;;;;;;11.70;10.50;;;9.50;63.80;;;;;;4940606;28;89153;-32
2022/03/08 10:43:19;;;;;;;11.70;10.10;;;9.60;62.60;;;;;;4939111;28;90082;-34
2022/03/08 10:45:53;;;;;;;10.40;9.40;;;9.60;63.00;;;;;;4939260;28;89703;-34
2022/03/08 10:48:25;;;;;;;10.63;9.43;;;9.60;62.40;;;;;;4939343;28;89546;-32
2022/03/08 10:50:50;;;;;;;11.18;9.18;;;9.60;62.80;;;;;;4940211;28;90266;-31
2022/03/08 10:53:16;;;;;;;11.05;8.77;;;9.70;64.00;;;;;;4939610;28;89276;-33
2022/03/08 10:55:48;;;;;;;10.45;8.95;;;9.80;62.20;;;;;;4939173;28;89957;-35
2022/03/08 10:58:15;;;;;;;11.85;9.70;;;9.90;61.70;;;;;;4940133;28;88907;-35
2022/03/08 11:00:47;;;;;;;12.30;9.97;;;10.00;61.50;;;;;;4940730;28;89565;-32
2022/03/08 11:03:18;;;;;;;9.60;8.70;;;10.00;59.50;;;;;;4938748;28;90373;-33
2022/03/08 11:05:49;;;;;;;10.02;8.40;;;10.00;60.50;;;;;;4939762;28;89783;-30
2022/03/08 11:08:15;;;;;;;7.60;6.80;;;10.10;58.80;;;;;;4939440;28;88988;-32
2022/03/08 11:10:42;;;;;;;10.63;8.45;;;10.10;58.00;;;;;;4938894;28;88567;-33
2022/03/08 11:13:09;;;;;;;9.23;8.35;;;10.00;59.80;;;;;;4940367;28;90005;-32
2022/03/08 11:15:38;;;;;;;8.68;7.82;;;10.10;59.30;;;;;;4939140;28;89238;-33
2022/03/08 11:18:06;;;;;;;11.55;7.95;;;10.20;58.50;;;;;;4939074;28;88443;-32
2022/03/08 11:20:34;;;;;;;10.18;9.15;;;10.30;58.10;;;;;;4939217;28;88473;-33
2022/03/08 11:23:00;;;;;;;10.07;7.32;;;10.30;59.50;;;;;;4939504;28;90342;-31
2022/03/08 11:25:33;;;;;;;10.02;8.25;;;10.30;58.40;;;;;;4938888;28;90004;-34
2022/03/08 11:28:01;;;;;;;9.85;8.80;;;10.40;58.50;;;;;;4937338;28;90277;-34
2022/03/08 11:30:34;;;;;;;9.98;8.15;;;10.50;57.40;;;;;;4914010;28;89882;-33
2022/03/08 11:33:12;;;;;;;9.32;8.48;;;10.50;57.60;;;;;;4919168;28;90186;-30
2022/03/08 11:35:49;;;;;;;9.32;8.30;;;10.30;59.00;;;;;;4918686;28;89634;-34
2022/03/08 11:38:15;;;;;;;9.15;7.95;;;10.40;58.20;;;;;;4919404;28;88351;-35
2022/03/08 11:40:53;;;;;;;9.70;8.70;;;10.50;56.70;;;;;;4900776;28;88618;-32
2022/03/08 11:43:19;;;;;;;12.23;9.45;;;10.60;57.60;;;;;;4899835;28;90196;-34
2022/03/08 11:45:48;;;;;;;9.93;8.73;;;10.50;58.80;;;;;;4900818;28;89549;-33
2022/03/08 11:48:19;;;;;;;9.30;7.47;;;10.70;57.70;;;;;;4900336;28;89350;-32
2022/03/08 11:50:45;;;;;;;11.57;8.60;;;10.70;56.60;;;;;;4900429;28;87573;-32
2022/03/08 11:53:13;;;;;;;10.02;8.15;;;10.60;57.70;;;;;;4901040;28;89603;-32
2022/03/08 11:55:48;;;;;;;10.07;8.82;;;10.70;57.30;;;;;;4900144;28;89780;-32
2022/03/08 11:58:18;;;;;;;9.25;7.28;;;10.70;57.10;;;;;;4900617;28;88603;-32
2022/03/08 12:00:58;;;;;;;17.00;8.98;;;10.80;55.70;;;;;;4902923;28;89257;-32
2022/03/08 12:03:23;;;;;;;9.68;8.55;;;10.80;55.70;;;;;;4902910;28;91529;-32
2022/03/08 12:05:57;;;;;;;11.68;8.82;;;10.70;56.70;;;;;;4903938;28;89403;-32
2022/03/08 12:08:28;;;;;;;9.05;7.78;;;10.70;58.20;;;;;;4955926;23;89586;-31
2022/03/08 12:11:05;;;;;;;9.02;7.70;;;10.80;58.60;;;;;;4923340;28;89341;-33
2022/03/08 12:13:35;;;;;;;9.15;8.35;;;11.00;55.80;;;;;;4921313;28;90253;-32
2022/03/08 12:16:09;;;;;;;6.88;6.20;;;11.00;57.40;;;;;;4921154;28;91656;-31
2022/03/08 12:18:49;;;;;;;10.90;8.15;;;10.90;57.20;;;;;;4921550;28;90281;-33
2022/03/08 12:21:19;;;;;;;10.70;9.20;;;11.00;57.00;;;;;;4922501;28;90594;-32
2022/03/08 12:23:54;;;;;;;10.23;8.25;;;10.90;57.50;;;;;;4921546;28;90627;-30
2022/03/08 12:26:24;;;;;;;10.93;8.32;;;10.90;57.10;;;;;;4920312;28;91169;-32
2022/03/08 12:29:13;;;;;;;8.25;7.22;;;10.90;56.70;;;;;;4921509;28;90898;-33
2022/03/08 12:32:01;;;;;;;9.02;6.88;;;11.00;55.50;;;;;;4921512;28;89675;-32